LTARLTAU

Guest
Details From LTAR - SIVAS
To LTAU - ERKILET
Flight Number -
Tags generated
Created
Modified
Stats Distance 91 nm / 168 km
Max Altitude 7,200 ft / 2,195 m
Waypoints 3
Social Downloads 1
Likes 0
Share VATSIM

Download

Looking for another format? Having issues loading an existing format? Contact us
Advertisement - Login to hide

Notes

Basic altitude profile: - Ascent Rate: 2500ft/min - Ascent Speed: 250kts - Cruise Altitude: 35000ft - Cruise Speed: 420kts - Descent Rate: 1500ft/min - Descent Speed: 250kts Options: - Use NATs: yes - Use PACOTS: yes - Use low airways: yes - Use high airways: yes

Route

LTAR GEM LTAU

ID Type Via Altitude (ft/m) Position (lat/lon) Dist (leg/tot) Name
O LTAR APT - 0 / 0 39.81383 / 36.90350 - / 0 nm SIVAS
GEM VOR - 7,200 / 2,195 39.15528 / 36.02917 56 / 56 nm GEMEREK VOR-DME
O LTAU APT - 0 / 0 38.77038 / 35.49543 33 / 90 nm ERKILET

Altitude Profile

Advertisement - Login to hide

LTAR

Details ICAO LTAR (VAS)
Name SIVAS
Region Turkey
Timezone Europe/Istanbul (UTC+3.0)
Stats Elevation 5,239 ft / 1,597 m (AMSL)
Location 39.814000° 36.903500°
Runways 1
Magnetic Variation 6.000° E

METAR

LTAR 230650Z 17007KT CAVOK 11/06 Q1022 RMK RWY19 16006KT 120V200

Decode

TAF

Not found

Departure Runways

ID Width Length Bearing (true/mag) Surface Threshold Overrun Markings Lighting
01 148 ft / 45 m 12,515 ft / 3,814 m 17.81° / 11.81° CONCRETE 0 ft / 0 m 0 ft / 0 m APP CALVERT REIL-OMNI
19 148 ft / 45 m 12,515 ft / 3,814 m 197.82° / 191.82° CONCRETE 0 ft / 0 m 0 ft / 0 m APP REIL-OMNI

LTAU

Details ICAO LTAU (ASR)
Name Kayseri Erkilet Airport
Region Turkey
Timezone Europe/Istanbul (UTC+3.0)
Stats Elevation 3,462 ft / 1,055 m (AMSL)
Location 38.770400° 35.495500°
Runways 1
Magnetic Variation 5.732° E

METAR

LTAU 230650Z 00000KT 9999 FEW040 SCT200 15/09 Q1020 NOSIG RMK RWY07 05003KT 350V120

Decode

TAF

TAF LTAU 222240Z 2300/2324 VRB02KT 8000 NSC TEMPO 2302/2306 2500 BR BECMG 2304/2307 SCT040 BKN200

Decode

Destination Runways

ID Width Length Bearing (true/mag) Surface Threshold Overrun Markings Lighting
07 145 ft / 44 m 9,838 ft / 2,999 m 76.30° / 70.56° CONCRETE 0 ft / 0 m 482 ft / 147 m APP EDGE THRESHOLD ALSF-I
25 145 ft / 44 m 9,838 ft / 2,999 m 256.32° / 250.58° CONCRETE 0 ft / 0 m 479 ft / 146 m APP EDGE THRESHOLD CALVERT

Approach Navaids

Runway Type Ident Frequency Range Bearing (true/mag) Slope Elevation
25 OM OM - - 256.30° / 250.57 ° - 3,838 ft / 1,170 m (AMSL)
25 LOC-ILS IKSR 110.30 MHz 18 nm / 33 km 256.40° / 250.67 ° - 3,453 ft / 1,052 m (AMSL)
25 MM MM - - 256.30° / 250.57 ° - 3,463 ft / 1,056 m (AMSL)
25 GS IKSR 110.30 MHz 10 nm / 19 km 256.60° / 250.87 ° 3.00° 3,463 ft / 1,056 m (AMSL)

Popular Alternatives